sensor_id;sensor_type;location;lat;lon;timestamp;temperature;humidity
23669;DHT22;12011;47.422;15.018;2023-03-19T00:02:06;-0.60;99.90
23669;DHT22;12011;47.422;15.018;2023-03-19T00:04:36;-0.70;99.90
23669;DHT22;12011;47.422;15.018;2023-03-19T00:07:06;-0.40;99.90
23669;DHT22;12011;47.422;15.018;2023-03-19T00:09:36;0.00;99.90
23669;DHT22;12011;47.422;15.018;2023-03-19T00:12:06;1.30;99.90
23669;DHT22;12011;47.422;15.018;2023-03-19T00:14:39;-0.70;99.90
23669;DHT22;12011;47.422;15.018;2023-03-19T00:17:09;-1.20;99.90
23669;DHT22;12011;47.422;15.018;2023-03-19T00:19:39;-0.30;99.90
23669;DHT22;12011;47.422;15.018;2023-03-19T00:22:08;2.00;99.90
23669;DHT22;12011;47.422;15.018;2023-03-19T00:24:38;1.20;99.90
23669;DHT22;12011;47.422;15.018;2023-03-19T00:27:07;-0.30;99.90
23669;DHT22;12011;47.422;15.018;2023-03-19T00:29:40;0.10;99.90
23669;DHT22;12011;47.422;15.018;2023-03-19T00:32:10;1.10;99.90
23669;DHT22;12011;47.422;15.018;2023-03-19T00:34:39;0.80;99.90
23669;DHT22;12011;47.422;15.018;2023-03-19T00:37:09;0.70;99.90
23669;DHT22;12011;47.422;15.018;2023-03-19T00:39:41;-0.60;99.90
23669;DHT22;12011;47.422;15.018;2023-03-19T00:42:11;-1.10;99.90
23669;DHT22;12011;47.422;15.018;2023-03-19T00:44:43;-1.40;99.90
23669;DHT22;12011;47.422;15.018;2023-03-19T00:47:13;0.10;99.90
23669;DHT22;12011;47.422;15.018;2023-03-19T00:49:42;-0.10;99.90
23669;DHT22;12011;47.422;15.018;2023-03-19T00:52:12;-0.40;99.90
23669;DHT22;12011;47.422;15.018;2023-03-19T00:54:42;-0.50;99.90
23669;DHT22;12011;47.422;15.018;2023-03-19T00:57:11;1.70;99.90
23669;DHT22;12011;47.422;15.018;2023-03-19T00:59:43;0.90;99.90
23669;DHT22;12011;47.422;15.018;2023-03-19T01:02:13;1.00;99.90
23669;DHT22;12011;47.422;15.018;2023-03-19T01:04:46;-0.50;99.90
23669;DHT22;12011;47.422;15.018;2023-03-19T01:07:16;-1.50;99.90
23669;DHT22;12011;47.422;15.018;2023-03-19T01:09:46;1.00;99.90
23669;DHT22;12011;47.422;15.018;2023-03-19T01:12:16;0.30;99.90
23669;DHT22;12011;47.422;15.018;2023-03-19T01:14:48;1.00;99.90
23669;DHT22;12011;47.422;15.018;2023-03-19T01:17:18;0.40;99.90
23669;DHT22;12011;47.422;15.018;2023-03-19T01:19:48;1.20;99.90
23669;DHT22;12011;47.422;15.018;2023-03-19T01:22:17;0.60;99.90
23669;DHT22;12011;47.422;15.018;2023-03-19T01:24:53;0.60;99.90
23669;DHT22;12011;47.422;15.018;2023-03-19T01:27:22;1.40;99.90
23669;DHT22;12011;47.422;15.018;2023-03-19T01:29:54;1.40;99.90
23669;DHT22;12011;47.422;15.018;2023-03-19T01:32:44;0.70;99.90
23669;DHT22;12011;47.422;15.018;2023-03-19T01:35:26;0.60;99.90
23669;DHT22;12011;47.422;15.018;2023-03-19T01:37:55;0.00;99.90
23669;DHT22;12011;47.422;15.018;2023-03-19T01:40:25;1.20;99.90
23669;DHT22;12011;47.422;15.018;2023-03-19T01:42:56;1.40;99.90
23669;DHT22;12011;47.422;15.018;2023-03-19T01:46:19;1.10;99.90
23669;DHT22;12011;47.422;15.018;2023-03-19T01:49:13;-0.20;99.90
23669;DHT22;12011;47.422;15.018;2023-03-19T01:51:48;0.20;99.90
23669;DHT22;12011;47.422;15.018;2023-03-19T01:54:30;1.50;99.90
23669;DHT22;12011;47.422;15.018;2023-03-19T01:57:34;0.60;99.90
23669;DHT22;12011;47.422;15.018;2023-03-19T02:00:17;-1.20;99.90
23669;DHT22;12011;47.422;15.018;2023-03-19T02:02:52;-1.40;99.90
23669;DHT22;12011;47.422;15.018;2023-03-19T02:05:46;0.90;99.90
23669;DHT22;12011;47.422;15.018;2023-03-19T02:08:19;1.80;99.90
23669;DHT22;12011;47.422;15.018;2023-03-19T02:10:53;0.30;99.90
23669;DHT22;12011;47.422;15.018;2023-03-19T02:13:26;0.00;99.90
23669;DHT22;12011;47.422;15.018;2023-03-19T02:15:55;2.00;99.90
23669;DHT22;12011;47.422;15.018;2023-03-19T02:18:29;0.40;99.90
23669;DHT22;12011;47.422;15.018;2023-03-19T02:21:05;0.00;99.90
23669;DHT22;12011;47.422;15.018;2023-03-19T02:23:44;-1.70;99.90
23669;DHT22;12011;47.422;15.018;2023-03-19T02:26:25;0.10;99.90
23669;DHT22;12011;47.422;15.018;2023-03-19T02:29:01;-0.20;99.90
23669;DHT22;12011;47.422;15.018;2023-03-19T02:31:34;-0.80;99.90
23669;DHT22;12011;47.422;15.018;2023-03-19T02:34:31;1.10;99.90
23669;DHT22;12011;47.422;15.018;2023-03-19T02:37:09;-0.80;99.90
23669;DHT22;12011;47.422;15.018;2023-03-19T02:39:49;-1.60;99.90
23669;DHT22;12011;47.422;15.018;2023-03-19T02:42:27;0.80;99.90
23669;DHT22;12011;47.422;15.018;2023-03-19T02:44:57;-0.50;99.90
23669;DHT22;12011;47.422;15.018;2023-03-19T02:47:27;-0.40;99.90
23669;DHT22;12011;47.422;15.018;2023-03-19T02:49:57;1.00;99.90
23669;DHT22;12011;47.422;15.018;2023-03-19T02:52:26;-1.40;99.90
23669;DHT22;12011;47.422;15.018;2023-03-19T02:54:56;0.30;99.90
23669;DHT22;12011;47.422;15.018;2023-03-19T02:57:28;-0.10;99.90
23669;DHT22;12011;47.422;15.018;2023-03-19T02:59:57;1.40;99.90
23669;DHT22;12011;47.422;15.018;2023-03-19T03:02:27;-0.30;99.90
23669;DHT22;12011;47.422;15.018;2023-03-19T03:04:56;-1.70;99.90
23669;DHT22;12011;47.422;15.018;2023-03-19T03:07:26;1.00;99.90
23669;DHT22;12011;47.422;15.018;2023-03-19T03:09:56;0.70;99.90
23669;DHT22;12011;47.422;15.018;2023-03-19T03:12:29;0.10;99.90
23669;DHT22;12011;47.422;15.018;2023-03-19T03:14:58;-0.20;99.90
23669;DHT22;12011;47.422;15.018;2023-03-19T03:17:27;-0.80;99.90
23669;DHT22;12011;47.422;15.018;2023-03-19T03:19:57;0.20;99.90
23669;DHT22;12011;47.422;15.018;2023-03-19T03:22:27;-0.60;99.90
23669;DHT22;12011;47.422;15.018;2023-03-19T03:24:56;0.20;99.90
23669;DHT22;12011;47.422;15.018;2023-03-19T03:27:29;1.10;99.90
23669;DHT22;12011;47.422;15.018;2023-03-19T03:29:58;-0.40;99.90
23669;DHT22;12011;47.422;15.018;2023-03-19T03:32:28;-1.00;99.90
23669;DHT22;12011;47.422;15.018;2023-03-19T03:34:57;-1.70;99.90
23669;DHT22;12011;47.422;15.018;2023-03-19T03:37:27;0.70;99.90
23669;DHT22;12011;47.422;15.018;2023-03-19T03:39:56;0.50;99.90
23669;DHT22;12011;47.422;15.018;2023-03-19T03:42:29;-0.50;99.90
23669;DHT22;12011;47.422;15.018;2023-03-19T03:44:59;0.00;99.90
23669;DHT22;12011;47.422;15.018;2023-03-19T03:47:28;0.20;99.90
23669;DHT22;12011;47.422;15.018;2023-03-19T03:49:58;0.80;99.90
23669;DHT22;12011;47.422;15.018;2023-03-19T03:52:29;-0.30;99.90
23669;DHT22;12011;47.422;15.018;2023-03-19T03:55:00;-0.60;99.90
23669;DHT22;12011;47.422;15.018;2023-03-19T03:57:32;0.60;99.90
23669;DHT22;12011;47.422;15.018;2023-03-19T04:00:05;0.70;99.90
23669;DHT22;12011;47.422;15.018;2023-03-19T04:02:40;-1.60;99.90
23669;DHT22;12011;47.422;15.018;2023-03-19T04:05:14;-0.70;99.90
23669;DHT22;12011;47.422;15.018;2023-03-19T04:07:44;-2.50;99.90
23669;DHT22;12011;47.422;15.018;2023-03-19T04:10:14;0.30;99.90
23669;DHT22;12011;47.422;15.018;2023-03-19T04:12:49;-1.50;99.90
23669;DHT22;12011;47.422;15.018;2023-03-19T04:15:19;-0.10;99.90
23669;DHT22;12011;47.422;15.018;2023-03-19T04:17:50;0.50;99.90
23669;DHT22;12011;47.422;15.018;2023-03-19T04:20:20;-1.50;99.90
23669;DHT22;12011;47.422;15.018;2023-03-19T04:22:51;0.30;99.90
23669;DHT22;12011;47.422;15.018;2023-03-19T04:25:20;-1.10;99.90
23669;DHT22;12011;47.422;15.018;2023-03-19T04:27:56;0.60;99.90
23669;DHT22;12011;47.422;15.018;2023-03-19T04:30:28;0.00;99.90
23669;DHT22;12011;47.422;15.018;2023-03-19T04:32:59;-1.40;99.90
23669;DHT22;12011;47.422;15.018;2023-03-19T04:35:30;-1.40;99.90
23669;DHT22;12011;47.422;15.018;2023-03-19T04:37:59;-1.80;99.90
23669;DHT22;12011;47.422;15.018;2023-03-19T04:40:29;0.50;99.90
23669;DHT22;12011;47.422;15.018;2023-03-19T04:43:02;-0.30;99.90
23669;DHT22;12011;47.422;15.018;2023-03-19T04:45:34;-0.80;99.90
23669;DHT22;12011;47.422;15.018;2023-03-19T04:48:04;0.60;99.90
23669;DHT22;12011;47.422;15.018;2023-03-19T04:50:36;-2.40;99.90
23669;DHT22;12011;47.422;15.018;2023-03-19T04:53:06;-2.30;99.90
23669;DHT22;12011;47.422;15.018;2023-03-19T04:55:36;0.70;99.90
23669;DHT22;12011;47.422;15.018;2023-03-19T04:58:15;-1.60;99.90
23669;DHT22;12011;47.422;15.018;2023-03-19T05:00:49;-1.70;99.90
23669;DHT22;12011;47.422;15.018;2023-03-19T05:03:24;-1.30;99.90
23669;DHT22;12011;47.422;15.018;2023-03-19T05:05:54;-2.40;99.90
23669;DHT22;12011;47.422;15.018;2023-03-19T05:08:24;-2.40;99.90
23669;DHT22;12011;47.422;15.018;2023-03-19T05:10:54;-3.00;99.90
23669;DHT22;12011;47.422;15.018;2023-03-19T05:13:29;0.30;99.90
23669;DHT22;12011;47.422;15.018;2023-03-19T05:15:59;-0.40;99.90
23669;DHT22;12011;47.422;15.018;2023-03-19T05:18:29;-2.70;99.90
23669;DHT22;12011;47.422;15.018;2023-03-19T05:20:59;0.40;99.90
23669;DHT22;12011;47.422;15.018;2023-03-19T05:23:30;-4.60;99.90
23669;DHT22;12011;47.422;15.018;2023-03-19T05:26:07;-0.10;99.90
23669;DHT22;12011;47.422;15.018;2023-03-19T05:29:02;0.50;99.90
23669;DHT22;12011;47.422;15.018;2023-03-19T05:31:47;0.20;99.90
23669;DHT22;12011;47.422;15.018;2023-03-19T05:34:19;0.60;99.90
23669;DHT22;12011;47.422;15.018;2023-03-19T05:36:49;0.30;99.90
23669;DHT22;12011;47.422;15.018;2023-03-19T05:39:19;-1.60;99.90
23669;DHT22;12011;47.422;15.018;2023-03-19T05:41:49;1.00;99.90
23669;DHT22;12011;47.422;15.018;2023-03-19T05:44:26;-0.60;99.90
23669;DHT22;12011;47.422;15.018;2023-03-19T05:47:18;-0.70;99.90
23669;DHT22;12011;47.422;15.018;2023-03-19T05:49:52;0.70;99.90
23669;DHT22;12011;47.422;15.018;2023-03-19T05:52:22;-0.10;99.90
23669;DHT22;12011;47.422;15.018;2023-03-19T05:54:55;-1.30;99.90
23669;DHT22;12011;47.422;15.018;2023-03-19T05:57:44;-0.80;99.90
23669;DHT22;12011;47.422;15.018;2023-03-19T06:00:23;-0.30;99.90
23669;DHT22;12011;47.422;15.018;2023-03-19T06:02:52;-0.20;99.90
23669;DHT22;12011;47.422;15.018;2023-03-19T06:05:28;0.20;99.90
23669;DHT22;12011;47.422;15.018;2023-03-19T06:08:04;-0.10;99.90
23669;DHT22;12011;47.422;15.018;2023-03-19T06:10:52;-0.50;99.90
23669;DHT22;12011;47.422;15.018;2023-03-19T06:13:22;0.40;99.90
23669;DHT22;12011;47.422;15.018;2023-03-19T06:16:00;2.10;99.90
23669;DHT22;12011;47.422;15.018;2023-03-19T06:18:33;3.40;99.90
23669;DHT22;12011;47.422;15.018;2023-03-19T06:21:14;4.70;99.90
23669;DHT22;12011;47.422;15.018;2023-03-19T06:23:45;5.00;97.50
23669;DHT22;12011;47.422;15.018;2023-03-19T06:26:26;5.50;92.50
23669;DHT22;12011;47.422;15.018;2023-03-19T06:28:57;7.60;86.50
23669;DHT22;12011;47.422;15.018;2023-03-19T06:31:30;8.00;69.10
23669;DHT22;12011;47.422;15.018;2023-03-19T06:34:14;7.90;61.40
23669;DHT22;12011;47.422;15.018;2023-03-19T06:36:58;8.30;59.20
23669;DHT22;12011;47.422;15.018;2023-03-19T06:39:41;9.50;56.20
23669;DHT22;12011;47.422;15.018;2023-03-19T06:42:31;10.00;52.70
23669;DHT22;12011;47.422;15.018;2023-03-19T06:45:02;8.80;54.00
23669;DHT22;12011;47.422;15.018;2023-03-19T06:47:41;9.30;58.50
23669;DHT22;12011;47.422;15.018;2023-03-19T06:50:11;9.50;54.00
23669;DHT22;12011;47.422;15.018;2023-03-19T06:52:43;9.70;55.20
23669;DHT22;12011;47.422;15.018;2023-03-19T06:55:13;9.80;52.20
23669;DHT22;12011;47.422;15.018;2023-03-19T06:57:47;10.20;49.60
23669;DHT22;12011;47.422;15.018;2023-03-19T07:00:19;10.20;47.40
23669;DHT22;12011;47.422;15.018;2023-03-19T07:02:51;10.10;49.00
23669;DHT22;12011;47.422;15.018;2023-03-19T07:05:21;10.50;47.80
23669;DHT22;12011;47.422;15.018;2023-03-19T07:07:51;11.40;49.70
23669;DHT22;12011;47.422;15.018;2023-03-19T07:10:21;11.60;45.10
23669;DHT22;12011;47.422;15.018;2023-03-19T07:12:52;11.00;43.50
23669;DHT22;12011;47.422;15.018;2023-03-19T07:15:22;11.60;44.40
23669;DHT22;12011;47.422;15.018;2023-03-19T07:17:55;12.40;46.80
23669;DHT22;12011;47.422;15.018;2023-03-19T07:20:25;13.10;49.10
23669;DHT22;12011;47.422;15.018;2023-03-19T07:22:55;13.30;42.80
23669;DHT22;12011;47.422;15.018;2023-03-19T07:25:25;13.40;41.60
23669;DHT22;12011;47.422;15.018;2023-03-19T07:27:55;13.60;40.80
23669;DHT22;12011;47.422;15.018;2023-03-19T07:30:24;13.80;40.10
23669;DHT22;12011;47.422;15.018;2023-03-19T07:32:57;14.30;39.70
23669;DHT22;12011;47.422;15.018;2023-03-19T07:35:28;14.80;37.70
23669;DHT22;12011;47.422;15.018;2023-03-19T07:38:03;14.60;38.10
23669;DHT22;12011;47.422;15.018;2023-03-19T07:40:42;13.60;39.20
23669;DHT22;12011;47.422;15.018;2023-03-19T07:43:12;12.70;40.30
23669;DHT22;12011;47.422;15.018;2023-03-19T07:45:42;12.40;41.90
23669;DHT22;12011;47.422;15.018;2023-03-19T07:48:14;11.50;43.70
23669;DHT22;12011;47.422;15.018;2023-03-19T07:50:48;12.40;46.30
23669;DHT22;12011;47.422;15.018;2023-03-19T07:53:19;12.20;44.80
23669;DHT22;12011;47.422;15.018;2023-03-19T07:55:49;13.20;43.00
23669;DHT22;12011;47.422;15.018;2023-03-19T07:58:23;13.90;42.10
23669;DHT22;12011;47.422;15.018;2023-03-19T08:00:55;14.70;38.80
23669;DHT22;12011;47.422;15.018;2023-03-19T08:03:30;14.70;37.80
23669;DHT22;12011;47.422;15.018;2023-03-19T08:06:01;15.30;37.80
23669;DHT22;12011;47.422;15.018;2023-03-19T08:08:36;15.50;35.60
23669;DHT22;12011;47.422;15.018;2023-03-19T08:11:10;15.20;36.80
23669;DHT22;12011;47.422;15.018;2023-03-19T08:13:52;14.70;37.60
23669;DHT22;12011;47.422;15.018;2023-03-19T08:16:24;14.40;39.00
23669;DHT22;12011;47.422;15.018;2023-03-19T08:19:02;14.50;39.80
23669;DHT22;12011;47.422;15.018;2023-03-19T08:21:39;15.30;38.70
23669;DHT22;12011;47.422;15.018;2023-03-19T08:24:27;15.00;38.80
23669;DHT22;12011;47.422;15.018;2023-03-19T08:27:14;15.20;38.00
23669;DHT22;12011;47.422;15.018;2023-03-19T08:30:16;14.90;38.90
23669;DHT22;12011;47.422;15.018;2023-03-19T08:34:16;15.60;37.20
23669;DHT22;12011;47.422;15.018;2023-03-19T08:41:07;14.80;38.40
23669;DHT22;12011;47.422;15.018;2023-03-19T08:44:16;14.40;38.90
23669;DHT22;12011;47.422;15.018;2023-03-19T08:47:06;14.70;38.80
23669;DHT22;12011;47.422;15.018;2023-03-19T08:49:53;15.60;39.30
23669;DHT22;12011;47.422;15.018;2023-03-19T08:52:28;15.80;40.10
23669;DHT22;12011;47.422;15.018;2023-03-19T08:55:06;16.90;37.00
23669;DHT22;12011;47.422;15.018;2023-03-19T08:57:39;18.10;35.30
23669;DHT22;12011;47.422;15.018;2023-03-19T09:00:17;19.60;33.80
23669;DHT22;12011;47.422;15.018;2023-03-19T09:02:54;19.50;32.70
23669;DHT22;12011;47.422;15.018;2023-03-19T09:05:26;19.70;32.80
23669;DHT22;12011;47.422;15.018;2023-03-19T09:07:56;20.40;30.00
23669;DHT22;12011;47.422;15.018;2023-03-19T09:10:26;19.90;29.00
23669;DHT22;12011;47.422;15.018;2023-03-19T09:12:56;20.40;30.20
23669;DHT22;12011;47.422;15.018;2023-03-19T09:15:26;19.50;30.50
23669;DHT22;12011;47.422;15.018;2023-03-19T09:17:56;19.90;30.70
23669;DHT22;12011;47.422;15.018;2023-03-19T09:20:28;19.90;30.00
23669;DHT22;12011;47.422;15.018;2023-03-19T09:22:58;19.40;31.40
23669;DHT22;12011;47.422;15.018;2023-03-19T09:25:27;19.70;32.80
23669;DHT22;12011;47.422;15.018;2023-03-19T09:27:57;19.40;31.10
23669;DHT22;12011;47.422;15.018;2023-03-19T09:30:26;19.70;31.50
23669;DHT22;12011;47.422;15.018;2023-03-19T09:32:56;19.60;30.00
23669;DHT22;12011;47.422;15.018;2023-03-19T09:35:28;19.60;33.30
23669;DHT22;12011;47.422;15.018;2023-03-19T09:37:58;19.30;31.00
23669;DHT22;12011;47.422;15.018;2023-03-19T09:40:34;18.80;31.80
23669;DHT22;12011;47.422;15.018;2023-03-19T09:43:28;19.40;35.30
23669;DHT22;12011;47.422;15.018;2023-03-19T09:46:16;20.40;30.30
23669;DHT22;12011;47.422;15.018;2023-03-19T09:49:01;19.80;29.60
23669;DHT22;12011;47.422;15.018;2023-03-19T09:51:47;19.30;31.10
23669;DHT22;12011;47.422;15.018;2023-03-19T09:54:27;18.30;32.00
23669;DHT22;12011;47.422;15.018;2023-03-19T09:56:59;18.00;32.40
23669;DHT22;12011;47.422;15.018;2023-03-19T09:59:30;17.70;34.40
23669;DHT22;12011;47.422;15.018;2023-03-19T10:02:28;17.50;33.20
23669;DHT22;12011;47.422;15.018;2023-03-19T10:05:18;17.30;33.90
23669;DHT22;12011;47.422;15.018;2023-03-19T10:08:13;17.40;35.00
23669;DHT22;12011;47.422;15.018;2023-03-19T10:11:13;17.20;35.60
23669;DHT22;12011;47.422;15.018;2023-03-19T10:14:01;17.10;36.20
23669;DHT22;12011;47.422;15.018;2023-03-19T10:16:47;16.70;36.20
23669;DHT22;12011;47.422;15.018;2023-03-19T10:19:23;16.80;37.80
23669;DHT22;12011;47.422;15.018;2023-03-19T10:22:01;17.50;36.00
23669;DHT22;12011;47.422;15.018;2023-03-19T10:24:40;17.80;36.60
23669;DHT22;12011;47.422;15.018;2023-03-19T10:27:14;18.10;36.00
23669;DHT22;12011;47.422;15.018;2023-03-19T10:29:45;18.50;32.90
23669;DHT22;12011;47.422;15.018;2023-03-19T10:32:18;18.10;33.00
23669;DHT22;12011;47.422;15.018;2023-03-19T10:34:50;18.50;34.40
23669;DHT22;12011;47.422;15.018;2023-03-19T10:37:22;19.10;32.10
23669;DHT22;12011;47.422;15.018;2023-03-19T10:39:58;19.50;32.10
23669;DHT22;12011;47.422;15.018;2023-03-19T10:42:48;19.10;30.30
23669;DHT22;12011;47.422;15.018;2023-03-19T10:45:27;18.60;32.00
23669;DHT22;12011;47.422;15.018;2023-03-19T10:47:59;18.50;33.00
23669;DHT22;12011;47.422;15.018;2023-03-19T10:50:34;18.10;32.20
23669;DHT22;12011;47.422;15.018;2023-03-19T10:53:19;17.70;33.00
23669;DHT22;12011;47.422;15.018;2023-03-19T10:56:01;17.20;34.30
23669;DHT22;12011;47.422;15.018;2023-03-19T10:58:34;17.20;34.10
23669;DHT22;12011;47.422;15.018;2023-03-19T11:01:07;17.00;37.20
23669;DHT22;12011;47.422;15.018;2023-03-19T11:03:39;17.40;39.00
23669;DHT22;12011;47.422;15.018;2023-03-19T11:06:23;18.10;34.20
23669;DHT22;12011;47.422;15.018;2023-03-19T11:08:57;18.60;36.90
23669;DHT22;12011;47.422;15.018;2023-03-19T11:11:43;19.00;33.30
23669;DHT22;12011;47.422;15.018;2023-03-19T11:14:15;18.70;35.30
23669;DHT22;12011;47.422;15.018;2023-03-19T11:16:49;18.40;35.20
23669;DHT22;12011;47.422;15.018;2023-03-19T11:19:24;17.90;35.40
23669;DHT22;12011;47.422;15.018;2023-03-19T11:22:07;17.40;37.10
23669;DHT22;12011;47.422;15.018;2023-03-19T11:24:40;17.10;35.20
23669;DHT22;12011;47.422;15.018;2023-03-19T11:27:13;17.50;34.10
23669;DHT22;12011;47.422;15.018;2023-03-19T11:29:44;18.00;34.70
23669;DHT22;12011;47.422;15.018;2023-03-19T11:35:33;19.30;29.90
23669;DHT22;12011;47.422;15.018;2023-03-19T11:38:18;18.90;30.00
23669;DHT22;12011;47.422;15.018;2023-03-19T11:41:04;17.90;30.40
23669;DHT22;12011;47.422;15.018;2023-03-19T11:43:53;17.60;33.50
23669;DHT22;12011;47.422;15.018;2023-03-19T11:46:36;17.70;33.80
23669;DHT22;12011;47.422;15.018;2023-03-19T11:49:30;18.90;34.00
23669;DHT22;12011;47.422;15.018;2023-03-19T11:52:24;19.50;29.60
23669;DHT22;12011;47.422;15.018;2023-03-19T11:55:11;19.50;30.00
23669;DHT22;12011;47.422;15.018;2023-03-19T11:58:13;19.50;31.70
23669;DHT22;12011;47.422;15.018;2023-03-19T12:00:56;19.20;32.60
23669;DHT22;12011;47.422;15.018;2023-03-19T12:03:53;19.00;33.20
23669;DHT22;12011;47.422;15.018;2023-03-19T12:06:45;19.00;30.40
23669;DHT22;12011;47.422;15.018;2023-03-19T12:09:28;18.80;30.60
23669;DHT22;12011;47.422;15.018;2023-03-19T12:12:13;18.60;32.40
23669;DHT22;12011;47.422;15.018;2023-03-19T12:15:04;18.50;34.30
23669;DHT22;12011;47.422;15.018;2023-03-19T12:17:59;18.60;35.50
23669;DHT22;12011;47.422;15.018;2023-03-19T12:20:48;18.50;34.40
23669;DHT22;12011;47.422;15.018;2023-03-19T12:23:36;18.40;35.30
23669;DHT22;12011;47.422;15.018;2023-03-19T12:26:19;18.60;34.70
23669;DHT22;12011;47.422;15.018;2023-03-19T12:29:02;18.40;33.70
23669;DHT22;12011;47.422;15.018;2023-03-19T12:31:53;18.30;35.50
23669;DHT22;12011;47.422;15.018;2023-03-19T12:34:37;18.20;35.00
23669;DHT22;12011;47.422;15.018;2023-03-19T12:37:18;18.40;34.30
23669;DHT22;12011;47.422;15.018;2023-03-19T12:40:10;18.70;34.00
23669;DHT22;12011;47.422;15.018;2023-03-19T12:42:45;18.60;33.80
23669;DHT22;12011;47.422;15.018;2023-03-19T12:45:26;18.40;35.00
23669;DHT22;12011;47.422;15.018;2023-03-19T12:48:03;18.30;34.40
23669;DHT22;12011;47.422;15.018;2023-03-19T12:50:40;18.60;36.20
23669;DHT22;12011;47.422;15.018;2023-03-19T12:53:27;18.60;33.70
23669;DHT22;12011;47.422;15.018;2023-03-19T12:56:10;18.50;35.10
23669;DHT22;12011;47.422;15.018;2023-03-19T12:58:51;18.60;35.90
23669;DHT22;12011;47.422;15.018;2023-03-19T13:01:27;18.80;33.20
23669;DHT22;12011;47.422;15.018;2023-03-19T13:04:05;18.90;34.10
23669;DHT22;12011;47.422;15.018;2023-03-19T13:06:48;18.90;34.30
23669;DHT22;12011;47.422;15.018;2023-03-19T13:09:28;18.90;32.10
23669;DHT22;12011;47.422;15.018;2023-03-19T13:12:05;18.80;32.90
23669;DHT22;12011;47.422;15.018;2023-03-19T13:14:48;19.10;35.00
23669;DHT22;12011;47.422;15.018;2023-03-19T13:17:28;19.10;32.90
23669;DHT22;12011;47.422;15.018;2023-03-19T13:20:13;19.30;34.60
23669;DHT22;12011;47.422;15.018;2023-03-19T13:22:54;19.40;37.10
23669;DHT22;12011;47.422;15.018;2023-03-19T13:25:31;19.20;33.50
23669;DHT22;12011;47.422;15.018;2023-03-19T13:28:08;18.50;34.80
23669;DHT22;12011;47.422;15.018;2023-03-19T13:30:38;19.20;33.70
23669;DHT22;12011;47.422;15.018;2023-03-19T13:33:20;19.10;36.40
23669;DHT22;12011;47.422;15.018;2023-03-19T13:35:51;19.40;37.10
23669;DHT22;12011;47.422;15.018;2023-03-19T13:38:26;19.10;32.90
23669;DHT22;12011;47.422;15.018;2023-03-19T13:40:59;18.70;35.10
23669;DHT22;12011;47.422;15.018;2023-03-19T13:43:51;18.60;33.20
23669;DHT22;12011;47.422;15.018;2023-03-19T13:46:39;18.90;35.30
23669;DHT22;12011;47.422;15.018;2023-03-19T13:49:24;19.10;37.20
23669;DHT22;12011;47.422;15.018;2023-03-19T13:52:02;18.90;35.70
23669;DHT22;12011;47.422;15.018;2023-03-19T13:54:53;19.00;34.90
23669;DHT22;12011;47.422;15.018;2023-03-19T13:57:34;19.00;34.50
23669;DHT22;12011;47.422;15.018;2023-03-19T14:03:34;18.70;33.80
23669;DHT22;12011;47.422;15.018;2023-03-19T14:06:34;18.90;35.50
23669;DHT22;12011;47.422;15.018;2023-03-19T14:09:35;18.70;32.90
23669;DHT22;12011;47.422;15.018;2023-03-19T14:12:34;18.50;33.80
23669;DHT22;12011;47.422;15.018;2023-03-19T14:15:18;18.40;33.10
23669;DHT22;12011;47.422;15.018;2023-03-19T14:17:58;18.30;32.60
23669;DHT22;12011;47.422;15.018;2023-03-19T14:20:33;18.10;35.00
23669;DHT22;12011;47.422;15.018;2023-03-19T14:23:19;18.30;36.80
23669;DHT22;12011;47.422;15.018;2023-03-19T14:25:55;18.30;35.00
23669;DHT22;12011;47.422;15.018;2023-03-19T14:28:36;18.50;36.10
23669;DHT22;12011;47.422;15.018;2023-03-19T14:31:22;18.40;35.80
23669;DHT22;12011;47.422;15.018;2023-03-19T14:34:04;18.40;38.60
23669;DHT22;12011;47.422;15.018;2023-03-19T14:36:44;18.30;36.30
23669;DHT22;12011;47.422;15.018;2023-03-19T14:39:20;18.10;36.80
23669;DHT22;12011;47.422;15.018;2023-03-19T14:42:00;18.00;35.50
23669;DHT22;12011;47.422;15.018;2023-03-19T14:48:19;18.00;34.10
23669;DHT22;12011;47.422;15.018;2023-03-19T14:54:23;17.90;38.70
23669;DHT22;12011;47.422;15.018;2023-03-19T14:56:56;17.70;35.80
23669;DHT22;12011;47.422;15.018;2023-03-19T14:59:35;17.50;44.30
23669;DHT22;12011;47.422;15.018;2023-03-19T15:02:20;17.20;39.00
23669;DHT22;12011;47.422;15.018;2023-03-19T15:05:03;17.30;41.60
23669;DHT22;12011;47.422;15.018;2023-03-19T15:07:37;17.20;37.10
23669;DHT22;12011;47.422;15.018;2023-03-19T15:10:16;17.30;40.70
23669;DHT22;12011;47.422;15.018;2023-03-19T15:13:11;17.00;39.40
23669;DHT22;12011;47.422;15.018;2023-03-19T15:16:12;16.90;41.20
23669;DHT22;12011;47.422;15.018;2023-03-19T15:18:49;16.80;42.80
23669;DHT22;12011;47.422;15.018;2023-03-19T15:21:20;16.70;42.90
23669;DHT22;12011;47.422;15.018;2023-03-19T15:23:50;16.90;43.80
23669;DHT22;12011;47.422;15.018;2023-03-19T15:26:29;16.50;40.90
23669;DHT22;12011;47.422;15.018;2023-03-19T15:28:59;16.60;41.10
23669;DHT22;12011;47.422;15.018;2023-03-19T15:31:41;16.50;39.60
23669;DHT22;12011;47.422;15.018;2023-03-19T15:34:20;16.50;42.60
23669;DHT22;12011;47.422;15.018;2023-03-19T15:36:54;16.40;42.90
23669;DHT22;12011;47.422;15.018;2023-03-19T15:39:29;16.30;42.80
23669;DHT22;12011;47.422;15.018;2023-03-19T15:42:03;16.10;46.40
23669;DHT22;12011;47.422;15.018;2023-03-19T15:44:38;16.10;47.60
23669;DHT22;12011;47.422;15.018;2023-03-19T15:47:16;15.90;47.00
23669;DHT22;12011;47.422;15.018;2023-03-19T15:49:56;15.60;50.10
23669;DHT22;12011;47.422;15.018;2023-03-19T15:52:32;15.50;59.10
23669;DHT22;12011;47.422;15.018;2023-03-19T15:55:06;15.40;68.80
23669;DHT22;12011;47.422;15.018;2023-03-19T15:57:38;15.10;71.20
23669;DHT22;12011;47.422;15.018;2023-03-19T16:00:13;15.00;50.00
23669;DHT22;12011;47.422;15.018;2023-03-19T16:02:48;14.90;44.40
23669;DHT22;12011;47.422;15.018;2023-03-19T16:05:27;14.70;49.60
23669;DHT22;12011;47.422;15.018;2023-03-19T16:07:59;14.60;56.70
23669;DHT22;12011;47.422;15.018;2023-03-19T16:10:32;14.60;50.60
23669;DHT22;12011;47.422;15.018;2023-03-19T16:13:03;14.40;46.20
23669;DHT22;12011;47.422;15.018;2023-03-19T16:15:54;14.40;46.40
23669;DHT22;12011;47.422;15.018;2023-03-19T16:18:29;14.30;47.80
23669;DHT22;12011;47.422;15.018;2023-03-19T16:21:15;14.10;47.80
23669;DHT22;12011;47.422;15.018;2023-03-19T16:23:53;14.00;53.00
23669;DHT22;12011;47.422;15.018;2023-03-19T16:26:28;13.70;56.90
23669;DHT22;12011;47.422;15.018;2023-03-19T16:29:04;13.40;61.80
23669;DHT22;12011;47.422;15.018;2023-03-19T16:31:49;13.30;53.90
23669;DHT22;12011;47.422;15.018;2023-03-19T16:34:28;13.40;57.50
23669;DHT22;12011;47.422;15.018;2023-03-19T16:37:30;13.30;52.90
23669;DHT22;12011;47.422;15.018;2023-03-19T16:40:07;13.40;53.30